sensor_id;sensor_type;location;lat;lon;timestamp;P1;durP1;ratioP1;P2;durP2;ratioP2
15913;SDS011;8055;51.930;8.840;2024-02-16T00:02:16;7.75;;;2.53;;
15913;SDS011;8055;51.930;8.840;2024-02-16T00:04:43;4.43;;;2.65;;
15913;SDS011;8055;51.930;8.840;2024-02-16T00:07:08;5.80;;;3.22;;
15913;SDS011;8055;51.930;8.840;2024-02-16T00:09:34;3.55;;;2.28;;
15913;SDS011;8055;51.930;8.840;2024-02-16T00:11:59;6.57;;;2.70;;
15913;SDS011;8055;51.930;8.840;2024-02-16T00:14:24;5.97;;;2.35;;
15913;SDS011;8055;51.930;8.840;2024-02-16T00:16:50;4.57;;;2.65;;
15913;SDS011;8055;51.930;8.840;2024-02-16T00:19:15;5.15;;;2.70;;
15913;SDS011;8055;51.930;8.840;2024-02-16T00:21:40;5.85;;;2.90;;
15913;SDS011;8055;51.930;8.840;2024-02-16T00:24:07;5.80;;;2.30;;
15913;SDS011;8055;51.930;8.840;2024-02-16T00:26:33;6.93;;;2.72;;
15913;SDS011;8055;51.930;8.840;2024-02-16T00:28:58;3.97;;;2.83;;
15913;SDS011;8055;51.930;8.840;2024-02-16T00:31:24;5.55;;;2.55;;
15913;SDS011;8055;51.930;8.840;2024-02-16T00:33:50;8.07;;;2.40;;
15913;SDS011;8055;51.930;8.840;2024-02-16T00:36:15;7.47;;;3.00;;
15913;SDS011;8055;51.930;8.840;2024-02-16T00:38:41;5.55;;;2.72;;
15913;SDS011;8055;51.930;8.840;2024-02-16T00:41:06;6.32;;;2.38;;
15913;SDS011;8055;51.930;8.840;2024-02-16T00:43:32;4.55;;;2.53;;
15913;SDS011;8055;51.930;8.840;2024-02-16T00:45:58;3.67;;;3.20;;
15913;SDS011;8055;51.930;8.840;2024-02-16T00:48:23;5.78;;;3.20;;
15913;SDS011;8055;51.930;8.840;2024-02-16T00:50:49;6.03;;;3.03;;
15913;SDS011;8055;51.930;8.840;2024-02-16T00:53:14;6.10;;;3.00;;
15913;SDS011;8055;51.930;8.840;2024-02-16T00:55:40;3.97;;;2.83;;
15913;SDS011;8055;51.930;8.840;2024-02-16T00:58:06;8.02;;;3.10;;
15913;SDS011;8055;51.930;8.840;2024-02-16T01:00:32;5.97;;;2.80;;
15913;SDS011;8055;51.930;8.840;2024-02-16T01:02:57;5.65;;;2.53;;
15913;SDS011;8055;51.930;8.840;2024-02-16T01:05:23;6.57;;;2.67;;
15913;SDS011;8055;51.930;8.840;2024-02-16T01:07:48;5.72;;;2.65;;
15913;SDS011;8055;51.930;8.840;2024-02-16T01:10:14;5.63;;;3.00;;
15913;SDS011;8055;51.930;8.840;2024-02-16T01:12:39;6.78;;;3.40;;
15913;SDS011;8055;51.930;8.840;2024-02-16T01:15:05;6.40;;;2.95;;
15913;SDS011;8055;51.930;8.840;2024-02-16T01:17:30;6.35;;;3.13;;
15913;SDS011;8055;51.930;8.840;2024-02-16T01:19:58;7.38;;;2.95;;
15913;SDS011;8055;51.930;8.840;2024-02-16T01:22:23;10.23;;;3.80;;
15913;SDS011;8055;51.930;8.840;2024-02-16T01:24:49;7.15;;;2.90;;
15913;SDS011;8055;51.930;8.840;2024-02-16T01:27:15;7.07;;;3.03;;
15913;SDS011;8055;51.930;8.840;2024-02-16T01:29:41;6.55;;;3.70;;
15913;SDS011;8055;51.930;8.840;2024-02-16T01:32:06;6.40;;;3.03;;
15913;SDS011;8055;51.930;8.840;2024-02-16T01:34:32;5.05;;;3.10;;
15913;SDS011;8055;51.930;8.840;2024-02-16T01:36:57;7.25;;;2.75;;
15913;SDS011;8055;51.930;8.840;2024-02-16T01:39:23;4.55;;;2.55;;
15913;SDS011;8055;51.930;8.840;2024-02-16T01:41:48;4.72;;;2.60;;
15913;SDS011;8055;51.930;8.840;2024-02-16T01:44:14;4.50;;;2.53;;
15913;SDS011;8055;51.930;8.840;2024-02-16T01:46:41;5.05;;;2.70;;
15913;SDS011;8055;51.930;8.840;2024-02-16T01:49:07;4.68;;;2.85;;
15913;SDS011;8055;51.930;8.840;2024-02-16T01:51:33;9.75;;;2.63;;
15913;SDS011;8055;51.930;8.840;2024-02-16T01:53:58;6.68;;;2.92;;
15913;SDS011;8055;51.930;8.840;2024-02-16T01:56:25;5.68;;;2.90;;
15913;SDS011;8055;51.930;8.840;2024-02-16T01:58:52;7.05;;;2.50;;
15913;SDS011;8055;51.930;8.840;2024-02-16T02:01:17;7.22;;;2.83;;
15913;SDS011;8055;51.930;8.840;2024-02-16T02:03:42;5.20;;;2.40;;
15913;SDS011;8055;51.930;8.840;2024-02-16T02:06:08;4.32;;;2.47;;
15913;SDS011;8055;51.930;8.840;2024-02-16T02:08:33;5.78;;;2.80;;
15913;SDS011;8055;51.930;8.840;2024-02-16T02:10:58;7.25;;;2.25;;
15913;SDS011;8055;51.930;8.840;2024-02-16T02:13:24;3.45;;;2.10;;
15913;SDS011;8055;51.930;8.840;2024-02-16T02:15:49;6.60;;;2.55;;
15913;SDS011;8055;51.930;8.840;2024-02-16T02:18:18;5.47;;;2.72;;
15913;SDS011;8055;51.930;8.840;2024-02-16T02:20:43;6.13;;;2.88;;
15913;SDS011;8055;51.930;8.840;2024-02-16T02:23:08;3.42;;;2.50;;
15913;SDS011;8055;51.930;8.840;2024-02-16T02:25:34;4.53;;;2.53;;
15913;SDS011;8055;51.930;8.840;2024-02-16T02:28:00;3.55;;;2.40;;
15913;SDS011;8055;51.930;8.840;2024-02-16T02:30:25;6.47;;;2.47;;
15913;SDS011;8055;51.930;8.840;2024-02-16T02:32:51;5.15;;;2.38;;
15913;SDS011;8055;51.930;8.840;2024-02-16T02:35:16;5.10;;;2.63;;
15913;SDS011;8055;51.930;8.840;2024-02-16T02:37:42;7.32;;;2.85;;
15913;SDS011;8055;51.930;8.840;2024-02-16T02:40:08;5.07;;;2.50;;
15913;SDS011;8055;51.930;8.840;2024-02-16T02:42:34;3.83;;;2.33;;
15913;SDS011;8055;51.930;8.840;2024-02-16T02:45:00;5.80;;;2.55;;
15913;SDS011;8055;51.930;8.840;2024-02-16T02:47:29;4.97;;;2.20;;
15913;SDS011;8055;51.930;8.840;2024-02-16T02:49:54;5.28;;;2.72;;
15913;SDS011;8055;51.930;8.840;2024-02-16T02:52:21;5.18;;;2.38;;
15913;SDS011;8055;51.930;8.840;2024-02-16T02:54:46;5.30;;;2.40;;
15913;SDS011;8055;51.930;8.840;2024-02-16T02:57:11;3.60;;;2.58;;
15913;SDS011;8055;51.930;8.840;2024-02-16T02:59:37;3.78;;;2.30;;
15913;SDS011;8055;51.930;8.840;2024-02-16T03:02:03;3.13;;;2.28;;
15913;SDS011;8055;51.930;8.840;2024-02-16T03:04:28;4.20;;;2.78;;
15913;SDS011;8055;51.930;8.840;2024-02-16T03:06:53;5.28;;;2.88;;
15913;SDS011;8055;51.930;8.840;2024-02-16T03:09:19;4.47;;;2.40;;
15913;SDS011;8055;51.930;8.840;2024-02-16T03:11:44;8.70;;;2.45;;
15913;SDS011;8055;51.930;8.840;2024-02-16T03:14:09;5.00;;;2.63;;
15913;SDS011;8055;51.930;8.840;2024-02-16T03:16:35;5.15;;;2.38;;
15913;SDS011;8055;51.930;8.840;2024-02-16T03:19:00;4.60;;;2.53;;
15913;SDS011;8055;51.930;8.840;2024-02-16T03:21:26;6.15;;;2.75;;
15913;SDS011;8055;51.930;8.840;2024-02-16T03:23:51;4.95;;;2.53;;
15913;SDS011;8055;51.930;8.840;2024-02-16T03:26:17;4.07;;;2.35;;
15913;SDS011;8055;51.930;8.840;2024-02-16T03:28:46;7.65;;;3.53;;
15913;SDS011;8055;51.930;8.840;2024-02-16T03:31:19;4.07;;;2.88;;
15913;SDS011;8055;51.930;8.840;2024-02-16T03:33:46;8.30;;;3.10;;
15913;SDS011;8055;51.930;8.840;2024-02-16T03:36:12;5.13;;;3.15;;
15913;SDS011;8055;51.930;8.840;2024-02-16T03:38:46;6.72;;;2.92;;
15913;SDS011;8055;51.930;8.840;2024-02-16T03:41:17;4.13;;;2.90;;
15913;SDS011;8055;51.930;8.840;2024-02-16T03:43:43;6.78;;;3.40;;
15913;SDS011;8055;51.930;8.840;2024-02-16T03:46:09;5.45;;;2.80;;
15913;SDS011;8055;51.930;8.840;2024-02-16T03:48:35;7.47;;;2.70;;
15913;SDS011;8055;51.930;8.840;2024-02-16T03:51:00;8.95;;;3.53;;
15913;SDS011;8055;51.930;8.840;2024-02-16T03:53:28;7.55;;;3.05;;
15913;SDS011;8055;51.930;8.840;2024-02-16T03:55:53;5.72;;;2.75;;
15913;SDS011;8055;51.930;8.840;2024-02-16T03:58:18;6.43;;;3.00;;
15913;SDS011;8055;51.930;8.840;2024-02-16T04:00:44;5.55;;;2.90;;
15913;SDS011;8055;51.930;8.840;2024-02-16T04:03:09;7.03;;;2.60;;
15913;SDS011;8055;51.930;8.840;2024-02-16T04:05:38;4.65;;;2.80;;
15913;SDS011;8055;51.930;8.840;2024-02-16T04:08:04;5.07;;;2.85;;
15913;SDS011;8055;51.930;8.840;2024-02-16T04:10:31;5.65;;;2.85;;
15913;SDS011;8055;51.930;8.840;2024-02-16T04:12:57;5.72;;;2.83;;
15913;SDS011;8055;51.930;8.840;2024-02-16T04:15:22;6.55;;;2.83;;
15913;SDS011;8055;51.930;8.840;2024-02-16T04:17:47;5.70;;;2.78;;
15913;SDS011;8055;51.930;8.840;2024-02-16T04:20:15;7.45;;;3.08;;
15913;SDS011;8055;51.930;8.840;2024-02-16T04:22:41;7.35;;;3.40;;
15913;SDS011;8055;51.930;8.840;2024-02-16T04:25:06;5.78;;;3.20;;
15913;SDS011;8055;51.930;8.840;2024-02-16T04:27:32;4.45;;;3.30;;
15913;SDS011;8055;51.930;8.840;2024-02-16T04:29:57;6.15;;;2.47;;
15913;SDS011;8055;51.930;8.840;2024-02-16T04:32:23;7.35;;;3.22;;
15913;SDS011;8055;51.930;8.840;2024-02-16T04:34:50;7.22;;;2.70;;
15913;SDS011;8055;51.930;8.840;2024-02-16T04:37:17;5.25;;;2.33;;
15913;SDS011;8055;51.930;8.840;2024-02-16T04:39:44;6.80;;;3.17;;
15913;SDS011;8055;51.930;8.840;2024-02-16T04:42:10;7.25;;;3.30;;
15913;SDS011;8055;51.930;8.840;2024-02-16T04:44:38;7.05;;;2.97;;
15913;SDS011;8055;51.930;8.840;2024-02-16T04:47:04;5.82;;;2.95;;
15913;SDS011;8055;51.930;8.840;2024-02-16T04:49:30;5.28;;;2.80;;
15913;SDS011;8055;51.930;8.840;2024-02-16T04:51:55;7.20;;;3.00;;
15913;SDS011;8055;51.930;8.840;2024-02-16T04:54:20;5.32;;;2.80;;
15913;SDS011;8055;51.930;8.840;2024-02-16T04:56:46;7.10;;;3.13;;
15913;SDS011;8055;51.930;8.840;2024-02-16T04:59:11;6.50;;;2.88;;
15913;SDS011;8055;51.930;8.840;2024-02-16T05:01:37;4.00;;;2.80;;
15913;SDS011;8055;51.930;8.840;2024-02-16T05:04:02;4.38;;;2.90;;
15913;SDS011;8055;51.930;8.840;2024-02-16T05:06:28;6.22;;;3.50;;
15913;SDS011;8055;51.930;8.840;2024-02-16T05:08:53;11.43;;;3.67;;
15913;SDS011;8055;51.930;8.840;2024-02-16T05:11:22;6.82;;;3.05;;
15913;SDS011;8055;51.930;8.840;2024-02-16T05:13:49;6.88;;;3.70;;
15913;SDS011;8055;51.930;8.840;2024-02-16T05:16:15;5.15;;;3.08;;
15913;SDS011;8055;51.930;8.840;2024-02-16T05:18:41;6.78;;;3.13;;
15913;SDS011;8055;51.930;8.840;2024-02-16T05:21:06;5.68;;;3.33;;
15913;SDS011;8055;51.930;8.840;2024-02-16T05:23:32;6.70;;;2.85;;
15913;SDS011;8055;51.930;8.840;2024-02-16T05:25:57;6.07;;;2.80;;
15913;SDS011;8055;51.930;8.840;2024-02-16T05:28:23;6.95;;;3.13;;
15913;SDS011;8055;51.930;8.840;2024-02-16T05:30:48;5.85;;;3.22;;
15913;SDS011;8055;51.930;8.840;2024-02-16T05:33:13;6.03;;;3.22;;
15913;SDS011;8055;51.930;8.840;2024-02-16T05:35:39;6.15;;;3.10;;
15913;SDS011;8055;51.930;8.840;2024-02-16T05:38:06;6.30;;;3.22;;
15913;SDS011;8055;51.930;8.840;2024-02-16T05:40:35;7.82;;;3.63;;
15913;SDS011;8055;51.930;8.840;2024-02-16T05:43:18;5.15;;;3.47;;
15913;SDS011;8055;51.930;8.840;2024-02-16T05:45:45;6.13;;;3.85;;
15913;SDS011;8055;51.930;8.840;2024-02-16T05:48:11;8.65;;;4.05;;
15913;SDS011;8055;51.930;8.840;2024-02-16T05:50:37;9.68;;;3.75;;
15913;SDS011;8055;51.930;8.840;2024-02-16T05:53:03;6.40;;;3.67;;
15913;SDS011;8055;51.930;8.840;2024-02-16T05:55:28;6.97;;;4.03;;
15913;SDS011;8055;51.930;8.840;2024-02-16T05:57:54;9.75;;;4.50;;
15913;SDS011;8055;51.930;8.840;2024-02-16T06:00:19;8.48;;;4.70;;
15913;SDS011;8055;51.930;8.840;2024-02-16T06:02:46;11.57;;;5.15;;
15913;SDS011;8055;51.930;8.840;2024-02-16T06:05:12;7.85;;;4.85;;
15913;SDS011;8055;51.930;8.840;2024-02-16T06:07:38;7.60;;;4.63;;
15913;SDS011;8055;51.930;8.840;2024-02-16T06:10:03;9.73;;;4.63;;
15913;SDS011;8055;51.930;8.840;2024-02-16T06:12:32;9.38;;;5.18;;
15913;SDS011;8055;51.930;8.840;2024-02-16T06:14:58;7.97;;;5.40;;
15913;SDS011;8055;51.930;8.840;2024-02-16T06:17:24;11.15;;;5.50;;
15913;SDS011;8055;51.930;8.840;2024-02-16T06:19:49;12.60;;;5.47;;
15913;SDS011;8055;51.930;8.840;2024-02-16T06:22:15;7.07;;;4.70;;
15913;SDS011;8055;51.930;8.840;2024-02-16T06:24:41;6.88;;;4.90;;
15913;SDS011;8055;51.930;8.840;2024-02-16T06:27:06;9.27;;;4.60;;
15913;SDS011;8055;51.930;8.840;2024-02-16T06:29:33;9.98;;;4.43;;
15913;SDS011;8055;51.930;8.840;2024-02-16T06:32:00;9.45;;;4.55;;
15913;SDS011;8055;51.930;8.840;2024-02-16T06:34:27;8.38;;;4.43;;
15913;SDS011;8055;51.930;8.840;2024-02-16T06:36:52;6.10;;;4.65;;
15913;SDS011;8055;51.930;8.840;2024-02-16T06:39:17;8.30;;;4.55;;
15913;SDS011;8055;51.930;8.840;2024-02-16T06:41:43;7.18;;;4.38;;
15913;SDS011;8055;51.930;8.840;2024-02-16T06:44:11;7.30;;;4.03;;
15913;SDS011;8055;51.930;8.840;2024-02-16T06:46:36;5.82;;;3.63;;
15913;SDS011;8055;51.930;8.840;2024-02-16T06:49:02;7.85;;;3.65;;
15913;SDS011;8055;51.930;8.840;2024-02-16T06:51:27;7.88;;;3.85;;
15913;SDS011;8055;51.930;8.840;2024-02-16T06:53:54;8.00;;;3.42;;
15913;SDS011;8055;51.930;8.840;2024-02-16T06:56:19;8.88;;;3.83;;
15913;SDS011;8055;51.930;8.840;2024-02-16T06:58:46;8.32;;;3.53;;
15913;SDS011;8055;51.930;8.840;2024-02-16T07:01:15;12.15;;;3.92;;
15913;SDS011;8055;51.930;8.840;2024-02-16T07:03:42;7.80;;;3.42;;
15913;SDS011;8055;51.930;8.840;2024-02-16T07:06:08;7.38;;;3.55;;
15913;SDS011;8055;51.930;8.840;2024-02-16T07:08:41;6.00;;;3.70;;
15913;SDS011;8055;51.930;8.840;2024-02-16T07:11:08;9.70;;;4.32;;
15913;SDS011;8055;51.930;8.840;2024-02-16T07:13:36;9.00;;;4.30;;
15913;SDS011;8055;51.930;8.840;2024-02-16T07:16:02;7.43;;;3.90;;
15913;SDS011;8055;51.930;8.840;2024-02-16T07:18:29;7.20;;;4.28;;
15913;SDS011;8055;51.930;8.840;2024-02-16T07:20:55;7.07;;;4.30;;
15913;SDS011;8055;51.930;8.840;2024-02-16T07:23:21;8.07;;;4.50;;
15913;SDS011;8055;51.930;8.840;2024-02-16T07:25:47;7.47;;;4.85;;
15913;SDS011;8055;51.930;8.840;2024-02-16T07:28:14;9.95;;;5.47;;
15913;SDS011;8055;51.930;8.840;2024-02-16T07:30:39;9.82;;;5.65;;
15913;SDS011;8055;51.930;8.840;2024-02-16T07:33:06;10.00;;;5.43;;
15913;SDS011;8055;51.930;8.840;2024-02-16T07:35:32;7.88;;;4.65;;
15913;SDS011;8055;51.930;8.840;2024-02-16T07:38:00;8.55;;;4.68;;
15913;SDS011;8055;51.930;8.840;2024-02-16T07:40:29;9.52;;;4.90;;
15913;SDS011;8055;51.930;8.840;2024-02-16T07:42:56;11.07;;;4.28;;
15913;SDS011;8055;51.930;8.840;2024-02-16T07:45:21;9.40;;;4.43;;
15913;SDS011;8055;51.930;8.840;2024-02-16T07:47:47;9.20;;;4.25;;
15913;SDS011;8055;51.930;8.840;2024-02-16T07:50:13;6.18;;;4.15;;
15913;SDS011;8055;51.930;8.840;2024-02-16T07:52:39;9.75;;;4.43;;
15913;SDS011;8055;51.930;8.840;2024-02-16T07:55:07;9.52;;;4.22;;
15913;SDS011;8055;51.930;8.840;2024-02-16T07:57:34;6.00;;;4.05;;
15913;SDS011;8055;51.930;8.840;2024-02-16T07:59:59;7.75;;;3.90;;
15913;SDS011;8055;51.930;8.840;2024-02-16T08:02:25;6.80;;;3.85;;
15913;SDS011;8055;51.930;8.840;2024-02-16T08:04:50;6.85;;;3.55;;
15913;SDS011;8055;51.930;8.840;2024-02-16T08:07:16;6.80;;;4.07;;
15913;SDS011;8055;51.930;8.840;2024-02-16T08:09:47;5.57;;;2.90;;
15913;SDS011;8055;51.930;8.840;2024-02-16T08:12:14;6.43;;;2.72;;
15913;SDS011;8055;51.930;8.840;2024-02-16T08:14:40;6.15;;;2.22;;
15913;SDS011;8055;51.930;8.840;2024-02-16T08:17:09;7.38;;;2.42;;
15913;SDS011;8055;51.930;8.840;2024-02-16T08:19:35;8.73;;;2.20;;
15913;SDS011;8055;51.930;8.840;2024-02-16T08:22:05;5.47;;;2.58;;
15913;SDS011;8055;51.930;8.840;2024-02-16T08:24:31;5.88;;;3.60;;
15913;SDS011;8055;51.930;8.840;2024-02-16T08:26:57;3.72;;;1.85;;
15913;SDS011;8055;51.930;8.840;2024-02-16T08:29:23;3.92;;;2.28;;
15913;SDS011;8055;51.930;8.840;2024-02-16T08:31:51;2.90;;;1.98;;
15913;SDS011;8055;51.930;8.840;2024-02-16T08:34:17;4.13;;;2.47;;
15913;SDS011;8055;51.930;8.840;2024-02-16T08:36:46;5.93;;;1.80;;
15913;SDS011;8055;51.930;8.840;2024-02-16T08:39:13;6.47;;;3.17;;
15913;SDS011;8055;51.930;8.840;2024-02-16T08:41:40;4.07;;;2.03;;
15913;SDS011;8055;51.930;8.840;2024-02-16T08:44:06;3.20;;;1.98;;
15913;SDS011;8055;51.930;8.840;2024-02-16T08:46:37;3.67;;;2.33;;
15913;SDS011;8055;51.930;8.840;2024-02-16T08:49:04;4.88;;;2.72;;
15913;SDS011;8055;51.930;8.840;2024-02-16T08:51:32;8.07;;;6.00;;
15913;SDS011;8055;51.930;8.840;2024-02-16T08:53:58;8.77;;;6.68;;
15913;SDS011;8055;51.930;8.840;2024-02-16T08:56:24;4.50;;;2.55;;
15913;SDS011;8055;51.930;8.840;2024-02-16T08:58:49;4.63;;;3.08;;
15913;SDS011;8055;51.930;8.840;2024-02-16T09:01:15;5.13;;;3.35;;
15913;SDS011;8055;51.930;8.840;2024-02-16T09:03:42;5.97;;;3.08;;
15913;SDS011;8055;51.930;8.840;2024-02-16T09:06:07;4.82;;;2.40;;
15913;SDS011;8055;51.930;8.840;2024-02-16T09:08:33;5.30;;;2.22;;
15913;SDS011;8055;51.930;8.840;2024-02-16T09:11:00;3.30;;;1.65;;
15913;SDS011;8055;51.930;8.840;2024-02-16T09:13:30;3.45;;;1.73;;
15913;SDS011;8055;51.930;8.840;2024-02-16T09:15:59;4.70;;;1.65;;
15913;SDS011;8055;51.930;8.840;2024-02-16T09:18:24;4.65;;;1.63;;
15913;SDS011;8055;51.930;8.840;2024-02-16T09:20:50;3.78;;;1.65;;
15913;SDS011;8055;51.930;8.840;2024-02-16T09:23:16;3.67;;;1.90;;
15913;SDS011;8055;51.930;8.840;2024-02-16T09:25:41;3.13;;;1.80;;
15913;SDS011;8055;51.930;8.840;2024-02-16T09:28:08;5.72;;;1.98;;
15913;SDS011;8055;51.930;8.840;2024-02-16T09:30:34;3.70;;;1.83;;
15913;SDS011;8055;51.930;8.840;2024-02-16T09:33:01;4.70;;;1.90;;
15913;SDS011;8055;51.930;8.840;2024-02-16T09:35:27;5.85;;;2.00;;
15913;SDS011;8055;51.930;8.840;2024-02-16T09:37:53;3.80;;;2.20;;
15913;SDS011;8055;51.930;8.840;2024-02-16T09:40:18;3.10;;;1.80;;
15913;SDS011;8055;51.930;8.840;2024-02-16T09:42:47;2.63;;;1.60;;
15913;SDS011;8055;51.930;8.840;2024-02-16T09:45:16;3.42;;;2.10;;
15913;SDS011;8055;51.930;8.840;2024-02-16T09:47:45;3.63;;;1.70;;
15913;SDS011;8055;51.930;8.840;2024-02-16T09:50:14;4.15;;;1.50;;
15913;SDS011;8055;51.930;8.840;2024-02-16T09:52:40;3.83;;;1.70;;
15913;SDS011;8055;51.930;8.840;2024-02-16T09:55:07;3.65;;;1.92;;
15913;SDS011;8055;51.930;8.840;2024-02-16T09:57:36;4.32;;;1.73;;
15913;SDS011;8055;51.930;8.840;2024-02-16T10:00:02;3.03;;;1.65;;
15913;SDS011;8055;51.930;8.840;2024-02-16T10:02:44;4.82;;;2.38;;
15913;SDS011;8055;51.930;8.840;2024-02-16T10:05:14;5.18;;;2.00;;
15913;SDS011;8055;51.930;8.840;2024-02-16T10:07:44;4.20;;;1.95;;
15913;SDS011;8055;51.930;8.840;2024-02-16T10:10:22;2.65;;;1.60;;
15913;SDS011;8055;51.930;8.840;2024-02-16T10:12:48;3.08;;;1.90;;
15913;SDS011;8055;51.930;8.840;2024-02-16T10:15:20;7.35;;;2.03;;
15913;SDS011;8055;51.930;8.840;2024-02-16T10:17:59;4.53;;;2.15;;
15913;SDS011;8055;51.930;8.840;2024-02-16T10:20:29;5.18;;;2.22;;
15913;SDS011;8055;51.930;8.840;2024-02-16T10:23:08;6.72;;;1.90;;
15913;SDS011;8055;51.930;8.840;2024-02-16T10:25:34;3.90;;;1.90;;
15913;SDS011;8055;51.930;8.840;2024-02-16T10:28:03;5.90;;;1.90;;
15913;SDS011;8055;51.930;8.840;2024-02-16T10:30:31;5.07;;;2.03;;
15913;SDS011;8055;51.930;8.840;2024-02-16T10:33:00;3.75;;;1.90;;
15913;SDS011;8055;51.930;8.840;2024-02-16T10:35:27;4.13;;;1.90;;
15913;SDS011;8055;51.930;8.840;2024-02-16T10:37:54;3.60;;;1.80;;
15913;SDS011;8055;51.930;8.840;2024-02-16T10:40:22;8.40;;;2.20;;
15913;SDS011;8055;51.930;8.840;2024-02-16T10:42:49;3.15;;;1.95;;
15913;SDS011;8055;51.930;8.840;2024-02-16T10:45:16;3.90;;;2.08;;
15913;SDS011;8055;51.930;8.840;2024-02-16T10:47:42;4.30;;;2.05;;
15913;SDS011;8055;51.930;8.840;2024-02-16T10:50:07;4.82;;;2.08;;
15913;SDS011;8055;51.930;8.840;2024-02-16T10:52:34;8.95;;;2.25;;
15913;SDS011;8055;51.930;8.840;2024-02-16T10:55:04;5.00;;;2.30;;
15913;SDS011;8055;51.930;8.840;2024-02-16T10:57:30;4.00;;;2.10;;
15913;SDS011;8055;51.930;8.840;2024-02-16T10:59:58;5.10;;;2.15;;
15913;SDS011;8055;51.930;8.840;2024-02-16T11:02:24;8.50;;;2.33;;
15913;SDS011;8055;51.930;8.840;2024-02-16T11:04:51;7.65;;;2.38;;
15913;SDS011;8055;51.930;8.840;2024-02-16T11:07:17;5.63;;;2.45;;
15913;SDS011;8055;51.930;8.840;2024-02-16T11:09:44;4.28;;;2.20;;
15913;SDS011;8055;51.930;8.840;2024-02-16T11:12:13;5.57;;;2.13;;
15913;SDS011;8055;51.930;8.840;2024-02-16T11:14:43;4.50;;;2.40;;
15913;SDS011;8055;51.930;8.840;2024-02-16T11:17:20;6.75;;;2.63;;
15913;SDS011;8055;51.930;8.840;2024-02-16T11:19:47;4.88;;;2.30;;
15913;SDS011;8055;51.930;8.840;2024-02-16T11:22:16;5.97;;;2.25;;
15913;SDS011;8055;51.930;8.840;2024-02-16T11:24:43;6.13;;;2.10;;
15913;SDS011;8055;51.930;8.840;2024-02-16T11:27:10;6.13;;;2.40;;
15913;SDS011;8055;51.930;8.840;2024-02-16T11:29:37;6.50;;;2.70;;
15913;SDS011;8055;51.930;8.840;2024-02-16T11:32:04;7.55;;;2.35;;
15913;SDS011;8055;51.930;8.840;2024-02-16T11:34:31;3.67;;;1.98;;
15913;SDS011;8055;51.930;8.840;2024-02-16T11:37:06;5.15;;;2.33;;
15913;SDS011;8055;51.930;8.840;2024-02-16T11:39:32;5.53;;;2.53;;
15913;SDS011;8055;51.930;8.840;2024-02-16T11:42:09;7.53;;;2.53;;
15913;SDS011;8055;51.930;8.840;2024-02-16T11:44:36;5.20;;;2.20;;
15913;SDS011;8055;51.930;8.840;2024-02-16T11:47:05;6.07;;;2.70;;
15913;SDS011;8055;51.930;8.840;2024-02-16T11:49:35;7.35;;;2.40;;
15913;SDS011;8055;51.930;8.840;2024-02-16T11:52:01;5.60;;;2.50;;
15913;SDS011;8055;51.930;8.840;2024-02-16T11:54:29;7.00;;;2.45;;
15913;SDS011;8055;51.930;8.840;2024-02-16T11:56:55;6.30;;;3.08;;
15913;SDS011;8055;51.930;8.840;2024-02-16T11:59:21;7.63;;;2.97;;
15913;SDS011;8055;51.930;8.840;2024-02-16T12:01:50;13.20;;;5.70;;
15913;SDS011;8055;51.930;8.840;2024-02-16T12:04:20;10.68;;;2.90;;
15913;SDS011;8055;51.930;8.840;2024-02-16T12:06:50;7.95;;;2.83;;
15913;SDS011;8055;51.930;8.840;2024-02-16T12:09:16;6.32;;;2.80;;
15913;SDS011;8055;51.930;8.840;2024-02-16T12:11:42;9.55;;;2.90;;
15913;SDS011;8055;51.930;8.840;2024-02-16T12:14:07;5.55;;;2.78;;
15913;SDS011;8055;51.930;8.840;2024-02-16T12:16:32;5.78;;;2.85;;
15913;SDS011;8055;51.930;8.840;2024-02-16T12:19:02;4.07;;;2.67;;
15913;SDS011;8055;51.930;8.840;2024-02-16T12:21:30;7.47;;;2.88;;
15913;SDS011;8055;51.930;8.840;2024-02-16T12:23:56;8.73;;;3.28;;
15913;SDS011;8055;51.930;8.840;2024-02-16T12:26:21;8.70;;;3.20;;
15913;SDS011;8055;51.930;8.840;2024-02-16T12:28:47;6.53;;;2.90;;
15913;SDS011;8055;51.930;8.840;2024-02-16T12:31:23;5.63;;;3.05;;
15913;SDS011;8055;51.930;8.840;2024-02-16T12:33:49;6.97;;;3.03;;
15913;SDS011;8055;51.930;8.840;2024-02-16T12:36:14;5.65;;;2.88;;
15913;SDS011;8055;51.930;8.840;2024-02-16T12:38:40;10.85;;;2.85;;
15913;SDS011;8055;51.930;8.840;2024-02-16T12:41:05;11.15;;;3.15;;
15913;SDS011;8055;51.930;8.840;2024-02-16T12:43:31;9.23;;;2.97;;
15913;SDS011;8055;51.930;8.840;2024-02-16T12:45:57;6.13;;;2.78;;
15913;SDS011;8055;51.930;8.840;2024-02-16T12:48:24;7.53;;;2.97;;
15913;SDS011;8055;51.930;8.840;2024-02-16T12:50:50;6.43;;;3.30;;
15913;SDS011;8055;51.930;8.840;2024-02-16T12:53:17;7.57;;;3.45;;
15913;SDS011;8055;51.930;8.840;2024-02-16T12:55:42;6.90;;;3.13;;
15913;SDS011;8055;51.930;8.840;2024-02-16T12:58:08;5.63;;;2.60;;
15913;SDS011;8055;51.930;8.840;2024-02-16T13:00:33;6.70;;;2.80;;
15913;SDS011;8055;51.930;8.840;2024-02-16T13:02:59;6.82;;;3.28;;
15913;SDS011;8055;51.930;8.840;2024-02-16T13:05:25;7.07;;;3.03;;
15913;SDS011;8055;51.930;8.840;2024-02-16T13:07:50;11.60;;;3.95;;
15913;SDS011;8055;51.930;8.840;2024-02-16T13:10:15;7.22;;;3.10;;
15913;SDS011;8055;51.930;8.840;2024-02-16T13:12:41;6.20;;;2.97;;
15913;SDS011;8055;51.930;8.840;2024-02-16T13:15:08;10.30;;;3.30;;
15913;SDS011;8055;51.930;8.840;2024-02-16T13:17:33;6.22;;;3.00;;
15913;SDS011;8055;51.930;8.840;2024-02-16T13:19:59;5.63;;;3.20;;
15913;SDS011;8055;51.930;8.840;2024-02-16T13:22:32;6.95;;;3.10;;
15913;SDS011;8055;51.930;8.840;2024-02-16T13:24:58;9.40;;;3.20;;
15913;SDS011;8055;51.930;8.840;2024-02-16T13:27:23;9.52;;;3.53;;
15913;SDS011;8055;51.930;8.840;2024-02-16T13:29:49;7.68;;;3.60;;
15913;SDS011;8055;51.930;8.840;2024-02-16T13:32:14;10.35;;;3.60;;
15913;SDS011;8055;51.930;8.840;2024-02-16T13:34:40;6.03;;;3.33;;
15913;SDS011;8055;51.930;8.840;2024-02-16T13:37:05;7.00;;;3.70;;
15913;SDS011;8055;51.930;8.840;2024-02-16T13:39:30;6.47;;;3.60;;
15913;SDS011;8055;51.930;8.840;2024-02-16T13:41:56;9.68;;;3.53;;
15913;SDS011;8055;51.930;8.840;2024-02-16T13:44:22;11.15;;;3.90;;
15913;SDS011;8055;51.930;8.840;2024-02-16T13:46:48;7.40;;;3.53;;
15913;SDS011;8055;51.930;8.840;2024-02-16T13:49:14;8.63;;;3.33;;
15913;SDS011;8055;51.930;8.840;2024-02-16T13:51:40;11.43;;;4.28;;
15913;SDS011;8055;51.930;8.840;2024-02-16T13:54:06;10.60;;;3.63;;
15913;SDS011;8055;51.930;8.840;2024-02-16T13:56:32;10.25;;;4.15;;
15913;SDS011;8055;51.930;8.840;2024-02-16T13:59:00;11.82;;;3.97;;
15913;SDS011;8055;51.930;8.840;2024-02-16T14:01:25;9.23;;;4.15;;
15913;SDS011;8055;51.930;8.840;2024-02-16T14:03:51;11.20;;;4.70;;
15913;SDS011;8055;51.930;8.840;2024-02-16T14:06:16;8.38;;;4.30;;
15913;SDS011;8055;51.930;8.840;2024-02-16T14:08:42;13.57;;;4.75;;
15913;SDS011;8055;51.930;8.840;2024-02-16T14:11:07;9.45;;;5.00;;
15913;SDS011;8055;51.930;8.840;2024-02-16T14:13:34;7.63;;;4.28;;
15913;SDS011;8055;51.930;8.840;2024-02-16T14:16:00;13.45;;;4.35;;
15913;SDS011;8055;51.930;8.840;2024-02-16T14:18:25;9.93;;;4.22;;
15913;SDS011;8055;51.930;8.840;2024-02-16T14:20:51;11.93;;;4.53;;
15913;SDS011;8055;51.930;8.840;2024-02-16T14:23:16;10.18;;;4.43;;
15913;SDS011;8055;51.930;8.840;2024-02-16T14:25:44;11.40;;;4.68;;
15913;SDS011;8055;51.930;8.840;2024-02-16T14:28:10;11.40;;;5.03;;
15913;SDS011;8055;51.930;8.840;2024-02-16T14:30:35;13.60;;;5.20;;
15913;SDS011;8055;51.930;8.840;2024-02-16T14:33:01;11.43;;;4.90;;
15913;SDS011;8055;51.930;8.840;2024-02-16T14:35:30;8.68;;;4.80;;
15913;SDS011;8055;51.930;8.840;2024-02-16T14:37:56;14.55;;;5.90;;
15913;SDS011;8055;51.930;8.840;2024-02-16T14:40:22;14.43;;;7.25;;
15913;SDS011;8055;51.930;8.840;2024-02-16T14:42:48;13.55;;;6.90;;
15913;SDS011;8055;51.930;8.840;2024-02-16T14:45:13;14.98;;;7.85;;
15913;SDS011;8055;51.930;8.840;2024-02-16T14:47:48;37.20;;;19.08;;
15913;SDS011;8055;51.930;8.840;2024-02-16T14:50:13;11.10;;;5.93;;
15913;SDS011;8055;51.930;8.840;2024-02-16T14:52:39;13.57;;;6.13;;
15913;SDS011;8055;51.930;8.840;2024-02-16T14:55:06;11.73;;;5.78;;
15913;SDS011;8055;51.930;8.840;2024-02-16T14:57:35;17.13;;;6.43;;